Latest Weather Observations for Kyabram

IDV60801

Issued at 11:35 am EST Saturday 20 September 2014 (issued every 30 minutes, with the page automatically refreshed every 10 minutes)

About weather observations | Map of weather stations | Latest weather observations for VIC | Other Formats
Station Details ID: 080091 Name: KYABRAM Lat: -36.34 Lon: 145.06 Height: 105.0 m
Data from the previous 72 hours. | See also: Recent months at Kyabram
Date/Time
EST
Temp
°C
App
Temp
°C
Dew
Point
Rel
Hum
%
Delta-T
°C
Wind Press
QNH
hPa
Press
MSL
hPa
Rain
since 9 am
mm
Dir
 
Spd
km/h
Gust
km/h
Spd
kts
Gust
kts
20/11:30am 15.9 11.4 6.3 53 4.7 S 19 33 10 18 - - 0.0
20/11:00am 15.4 11.1 7.2 58 4.1 S 19 32 10 17 - - 0.0
20/10:30am 14.7 10.2 6.3 57 4.1 S 19 32 10 17 - - 0.0
20/10:00am 13.6 9.1 6.2 61 3.5 S 19 30 10 16 - - 0.0
20/09:30am 13.2 9.2 6.5 64 3.2 S 17 28 9 15 - - 0.0
20/09:00am 11.8 8.9 8.1 78 1.8 S 13 24 7 13 - - 0.2
20/08:30am 9.9 6.5 7.7 86 1.1 SSW 15 20 8 11 - - 0.2
20/08:00am 8.7 6.1 7.9 95 0.4 SSW 11 17 6 9 - - 0.2
20/07:30am 6.9 4.0 6.6 98 0.1 SSW 11 15 6 8 - - 0.2
20/07:00am 5.6 2.5 5.5 99 0.0 SSW 11 15 6 8 - - 0.0
20/06:30am 4.5 1.9 4.4 99 0.0 SSW 7 11 4 6 - - 0.0
20/06:00am 4.7 1.4 4.7 100 0.0 SSW 11 13 6 7 - - 0.0
20/05:30am 3.9 2.6 3.9 100 0.0 CALM 0 0 0 0 - - 0.0
20/05:00am 3.3 1.9 3.3 100 0.0 CALM 0 0 0 0 - - 0.0
20/04:30am 3.0 1.5 3.0 100 0.0 CALM 0 0 0 0 - - 0.0
20/04:00am 3.1 1.6 3.1 100 0.0 CALM 0 0 0 0 - - 0.0
20/03:30am 3.6 2.2 3.6 100 0.0 CALM 0 0 0 0 - - 0.0
20/03:00am 4.2 2.9 4.2 100 0.0 CALM 0 0 0 0 - - 0.0
20/02:30am 4.3 3.0 4.3 100 0.0 CALM 0 0 0 0 - - 0.0
20/02:00am 5.6 3.5 5.6 100 0.0 S 6 7 3 4 - - 0.0
20/01:30am 4.7 2.2 4.7 100 0.0 S 7 11 4 6 - - 0.0
20/01:00am 4.2 2.9 4.2 100 0.0 CALM 0 0 0 0 - - 0.0
20/12:30am 4.4 3.1 4.3 99 0.0 S 0 0 0 0 - - 0.0
20/12:00am 4.8 3.6 4.7 99 0.0 SW 0 0 0 0 - - 0.0
 
Date/Time
EST
Temp
°C
App
Temp
°C
Dew
Point
Rel
Hum
%
Delta-T
°C
Wind Press
QNH
hPa
Press
MSL
hPa
Rain
since 9 am
mm
Dir
 
Spd
km/h
Gust
km/h
Spd
kts
Gust
kts
19/11:30pm 5.3 4.2 4.9 97 0.2 CALM 0 0 0 0 - - 0.0
19/11:00pm 5.8 3.3 4.8 93 0.4 SSW 7 11 4 6 - - 0.0
19/10:30pm 6.4 4.1 4.6 88 0.8 SSW 6 7 3 4 - - 0.0
19/10:00pm 6.6 5.4 4.4 86 1.0 SW 0 0 0 0 - - 0.0
19/09:30pm 7.4 6.3 5.0 85 1.1 CALM 0 0 0 0 - - 0.0
19/09:00pm 7.0 5.7 4.3 83 1.2 CALM 0 0 0 0 - - 0.0
19/08:30pm 8.0 6.8 4.6 79 1.5 CALM 0 0 0 0 - - 0.0
19/08:00pm 8.9 7.0 4.7 75 1.9 SSW 4 6 2 3 - - 0.0
19/07:30pm 9.6 7.7 4.8 72 2.2 S 4 7 2 4 - - 0.0
19/07:00pm 10.6 9.5 5.2 69 2.5 CALM 0 0 0 0 - - 0.0
19/06:30pm 11.6 10.5 5.3 65 2.9 CALM 0 0 0 0 - - 0.0
19/06:00pm 13.3 10.8 4.5 55 4.1 S 7 11 4 6 - - 0.0
19/05:30pm 14.5 11.9 4.2 50 4.8 SSE 7 13 4 7 - - 0.0
19/05:00pm 15.3 12.0 4.4 48 5.1 S 11 20 6 11 - - 0.0
19/04:30pm 16.4 13.1 4.8 46 5.5 SSE 11 22 6 12 - - 0.0
19/04:00pm 15.1 12.2 4.5 49 5.0 S 9 15 5 8 - - 0.0
19/03:30pm 15.7 13.1 6.2 53 4.6 S 9 20 5 11 - - 0.0
19/03:00pm 17.4 14.6 6.9 50 5.2 S 11 20 6 11 - - 0.0
19/02:30pm 16.4 14.2 6.2 51 5.0 SSW 7 17 4 9 - - 0.0
19/02:00pm 14.7 12.0 5.8 55 4.3 SE 9 13 5 7 - - 0.0
19/01:30pm 15.0 12.3 5.8 54 4.4 SSE 9 13 5 7 - - 0.0
19/01:00pm 15.6 12.8 7.1 57 4.2 SSW 11 17 6 9 - - 0.0
19/12:30pm 15.3 12.0 6.6 56 4.3 S 13 20 7 11 - - 0.0
19/12:00pm 14.7 11.3 6.0 56 4.2 S 13 24 7 13 - - 0.0
19/11:30am 14.4 10.4 6.5 59 3.8 SSE 17 26 9 14 - - 0.0
19/11:00am 14.2 10.9 6.6 60 3.7 S 13 20 7 11 - - 0.0
19/10:30am 13.2 10.4 6.8 65 3.1 S 11 19 6 10 - - 0.0
19/10:00am 12.4 9.2 6.9 69 2.7 S 13 22 7 12 - - 0.0
19/09:30am 11.6 9.0 6.3 70 2.5 SSW 9 13 5 7 - - 0.0
19/09:00am 9.9 7.2 5.5 74 2.0 S 9 13 5 7 - - 0.0
19/08:30am 8.3 5.8 6.6 89 0.8 S 9 13 5 7 - - 0.0
19/08:00am 5.8 3.5 5.7 99 0.0 SW 7 11 4 6 - - 0.0
19/07:30am 3.9 1.2 3.9 100 0.0 SSW 7 9 4 5 - - 0.0
19/07:00am 2.4 -0.3 2.4 100 0.0 SSW 6 9 3 5 - - 0.0
19/06:30am 1.7 -1.2 1.7 100 0.0 SW 6 7 3 4 - - 0.0
19/06:00am 1.0 -1.6 1.0 100 0.0 W 4 9 2 5 - - 0.0
19/05:30am 1.2 -0.6 1.2 100 0.0 CALM 0 0 0 0 - - 0.0
19/05:00am 1.8 0.1 1.8 100 0.0 CALM 0 0 0 0 - - 0.0
19/04:30am 2.5 0.9 2.5 100 0.0 CALM 0 0 0 0 - - 0.0
19/04:00am 1.5 -0.3 1.5 100 0.0 CALM 0 0 0 0 - - 0.0
19/03:30am 2.4 0.8 2.4 100 0.0 CALM 0 0 0 0 - - 0.0
19/03:00am 2.3 -0.7 2.3 100 0.0 SSW 7 11 4 6 - - 0.0
19/02:30am 2.8 -0.1 2.8 100 0.0 SSW 7 11 4 6 - - 0.0
19/02:00am 3.0 0.2 3.0 100 0.0 SSW 7 11 4 6 - - 0.0
19/01:30am 3.8 1.3 3.7 99 0.0 W 6 7 3 4 - - 0.0
19/01:00am 4.0 1.5 3.9 99 0.0 W 6 7 3 4 - - 0.0
19/12:30am 4.2 2.1 4.1 99 0.0 WSW 4 7 2 4 - - 0.0
19/12:00am 4.5 1.9 4.4 99 0.0 SSW 7 9 4 5 - - 0.0
 
Date/Time
EST
Temp
°C
App
Temp
°C
Dew
Point
Rel
Hum
%
Delta-T
°C
Wind Press
QNH
hPa
Press
MSL
hPa
Rain
since 9 am
mm
Dir
 
Spd
km/h
Gust
km/h
Spd
kts
Gust
kts
18/11:30pm 5.0 2.7 4.7 98 0.1 SSW 6 7 3 4 - - 0.0
18/11:00pm 5.1 2.7 4.5 96 0.3 S 6 7 3 4 - - 0.0
18/10:30pm 5.6 3.1 4.9 95 0.3 S 7 9 4 5 - - 0.0
18/10:00pm 5.3 4.0 4.3 93 0.4 CALM 0 0 0 0 - - 0.0
18/09:30pm 6.2 5.1 5.0 92 0.5 CALM 0 0 0 0 - - 0.0
18/09:00pm 6.6 5.4 4.6 87 0.9 CALM 0 0 0 0 - - 0.0
18/08:30pm 7.6 5.4 5.1 84 1.1 SSE 6 9 3 5 - - 0.0
18/08:00pm 8.1 5.6 4.9 80 1.4 S 7 11 4 6 - - 0.0
18/07:30pm 8.8 6.4 5.2 78 1.6 SSE 7 11 4 6 - - 0.0
18/07:00pm 9.0 7.1 4.8 75 1.9 S 4 9 2 5 - - 0.0
18/06:30pm 10.0 8.9 5.2 72 2.2 CALM 0 0 0 0 - - 0.0
18/06:00pm 11.3 10.1 4.7 64 3.0 CALM 0 0 0 0 - - 0.0
18/05:30pm 13.1 10.7 4.5 56 4.0 S 6 11 3 6 - - 0.0
18/05:00pm 14.4 11.5 4.7 52 4.5 SSW 9 15 5 8 - - 0.0
18/04:30pm 14.1 11.5 4.4 52 4.5 S 7 11 4 6 - - 0.0
18/04:00pm 15.0 11.2 3.8 47 5.2 SSW 13 20 7 11 - - 0.0
18/03:30pm 14.4 10.5 3.2 47 5.1 SW 13 26 7 14 - - 0.0
18/03:00pm 14.3 10.3 2.9 46 5.1 SSW 13 17 7 9 - - 0.0
18/02:30pm 15.3 11.5 3.8 46 5.3 WSW 13 20 7 11 - - 0.0
18/02:00pm 14.1 10.8 4.7 53 4.4 SW 11 20 6 11 - - 0.0
18/01:30pm 14.4 10.5 3.2 47 5.1 SW 13 22 7 12 - - 0.0
18/01:00pm 15.4 11.9 5.6 52 4.7 SW 13 20 7 11 - - 0.0
18/12:30pm 15.2 13.0 6.0 54 4.4 SSW 7 17 4 9 - - 0.0
18/12:00pm 13.1 9.9 5.0 58 3.8 SSW 11 20 6 11 - - 0.0
18/11:30am 13.4 10.2 5.1 57 3.9 SW 11 19 6 10 - - 0.0
18/11:00am 12.8 10.0 5.0 59 3.6 SSW 9 20 5 11 - - 0.0
18/10:30am 12.1 8.6 5.5 64 3.1 SSW 13 20 7 11 - - 0.0
18/10:00am 12.0 8.6 5.9 66 2.9 SW 13 22 7 12 - - 0.0
18/09:30am 11.2 8.2 6.1 71 2.4 WSW 11 17 6 9 - - 0.0
18/09:00am 10.2 7.3 6.4 77 1.8 WSW 11 19 6 10 - - 0.0
18/08:30am 8.7 5.7 5.8 82 1.3 WSW 11 20 6 11 - - 0.0
18/08:00am 7.3 4.2 5.6 89 0.8 WSW 11 22 6 12 - - 0.0
18/07:30am 5.6 2.7 4.6 93 0.4 W 9 15 5 8 - - 0.0
18/07:00am 4.2 1.1 3.8 97 0.2 W 9 15 5 8 - - 0.0
18/06:30am 3.5 0.4 3.4 99 0.0 W 9 17 5 9 - - 0.0
18/06:00am 2.8 -0.1 2.7 99 0.0 W 7 13 4 7 - - 0.0
18/05:30am 3.2 0.0 3.1 99 0.0 W 9 13 5 7 - - 0.0
18/05:00am 3.4 0.6 3.1 98 0.1 W 7 13 4 7 - - 0.0
18/04:30am 3.5 0.7 3.2 98 0.1 W 7 13 4 7 - - 0.0
18/04:00am 3.5 0.7 3.1 97 0.2 W 7 11 4 6 - - 0.0
18/03:30am 3.4 0.5 2.5 94 0.4 W 7 11 4 6 - - 0.0
18/03:00am 4.4 1.2 3.2 92 0.5 W 9 13 5 7 - - 0.0
18/02:30am 4.7 1.6 3.5 92 0.5 W 9 15 5 8 - - 0.0
18/02:00am 4.6 1.8 3.1 90 0.6 WSW 7 11 4 6 - - 0.0
18/01:30am 4.7 1.9 3.2 90 0.6 WSW 7 13 4 7 - - 0.0
18/01:00am 5.0 2.2 3.0 87 0.8 WSW 7 13 4 7 - - 0.0
18/12:30am 5.3 2.1 3.2 86 0.9 WSW 9 15 5 8 - - 0.0
18/12:00am 5.8 2.6 3.3 84 1.0 WSW 9 13 5 7 - - 0.0
 
Date/Time
EST
Temp
°C
App
Temp
°C
Dew
Point
Rel
Hum
%
Delta-T
°C
Wind Press
QNH
hPa
Press
MSL
hPa
Rain
since 9 am
mm
Dir
 
Spd
km/h
Gust
km/h
Spd
kts
Gust
kts
17/11:30pm 5.6 3.0 3.1 84 1.0 SW 6 11 3 6 - - 0.0
17/11:00pm 6.4 3.6 3.2 80 1.3 SW 7 13 4 7 - - 0.0
17/10:30pm 6.8 3.7 3.4 79 1.4 SW 9 15 5 8 - - 0.0
17/10:00pm 7.1 3.3 3.7 79 1.5 SW 13 17 7 9 - - 0.0
17/09:30pm 7.1 4.4 3.7 79 1.5 SW 7 11 4 6 - - 0.0
17/09:00pm 7.9 4.5 3.9 76 1.7 SSW 11 19 6 10 - - 0.0
17/08:30pm 8.6 4.4 4.0 73 2.0 SSW 15 22 8 12 - - 0.0
17/08:00pm 9.5 5.0 4.3 70 2.3 SSW 17 26 9 14 - - 0.0
17/07:30pm 10.2 5.8 5.0 70 2.4 SSW 17 30 9 16 - - 0.0
17/07:00pm 10.6 5.9 5.2 69 2.5 SSW 19 26 10 14 - - 0.0
17/06:30pm 11.3 6.7 3.6 59 3.4 SW 17 30 9 16 - - 0.0
17/06:00pm 12.0 8.1 3.5 56 3.8 SW 13 24 7 13 - - 0.0
17/05:30pm 13.2 9.1 4.4 55 4.0 SSW 15 20 8 11 - - 0.0
17/05:00pm 14.4 10.0 4.7 52 4.5 SSW 17 32 9 17 - - 0.0
17/04:30pm 14.9 10.0 5.1 52 4.6 SSW 20 37 11 20 - - 0.0
17/04:00pm 14.5 9.9 3.6 48 5.0 SW 17 26 9 14 - - 0.0
17/03:30pm 16.3 11.9 5.0 47 5.4 SW 17 26 9 14 - - 0.0
17/03:00pm 16.1 11.9 5.7 50 5.0 SW 17 35 9 19 - - 0.0
17/02:30pm 16.8 12.3 6.0 49 5.3 WSW 19 33 10 18 - - 0.0
17/02:00pm 16.0 12.3 6.2 52 4.8 SW 15 30 8 16 - - 0.0
17/01:30pm 16.5 12.8 6.1 50 5.1 W 15 24 8 13 - - 0.0
17/01:00pm 14.6 10.4 4.0 49 4.9 WSW 15 28 8 15 - - 0.0
17/12:30pm 13.5 9.6 5.2 57 3.9 SW 15 26 8 14 - - 0.0
17/12:00pm 15.2 11.1 6.0 54 4.4 WSW 17 26 9 14 - - 0.0

Other Formats:

Comma delimited format used in spreadsheet applications
http://www.bom.gov.au/fwo/IDV60801/IDV60801.95833.axf

JavaScript Object Notation format (JSON) in row-major order
http://www.bom.gov.au/fwo/IDV60801/IDV60801.95833.json